sensor_id;sensor_type;location;lat;lon;timestamp;pressure;altitude;pressure_sealevel;temperature;humidity
49729;BME280;66333;49.798;10.968;2023-03-03T00:02:27;98318.91;;;7.52;55.16
49729;BME280;66333;49.798;10.968;2023-03-03T00:04:53;98313.69;;;7.52;55.27
49729;BME280;66333;49.798;10.968;2023-03-03T00:07:20;98317.28;;;7.51;54.98
49729;BME280;66333;49.798;10.968;2023-03-03T00:09:47;98318.91;;;7.52;55.09
49729;BME280;66333;49.798;10.968;2023-03-03T00:12:20;98319.19;;;7.49;55.35
49729;BME280;66333;49.798;10.968;2023-03-03T00:14:48;98318.09;;;7.51;55.04
49729;BME280;66333;49.798;10.968;2023-03-03T00:17:20;98312.31;;;7.48;55.28
49729;BME280;66333;49.798;10.968;2023-03-03T00:19:48;98315.91;;;7.47;55.30
49729;BME280;66333;49.798;10.968;2023-03-03T00:22:23;98321.09;;;7.47;55.20
49729;BME280;66333;49.798;10.968;2023-03-03T00:24:51;98321.09;;;7.47;55.37
49729;BME280;66333;49.798;10.968;2023-03-03T00:27:25;98324.69;;;7.46;55.25
49729;BME280;66333;49.798;10.968;2023-03-03T00:29:54;98324.00;;;7.44;55.19
49729;BME280;66333;49.798;10.968;2023-03-03T00:32:23;98322.22;;;7.44;55.22
49729;BME280;66333;49.798;10.968;2023-03-03T00:34:52;98327.41;;;7.44;55.05
49729;BME280;66333;49.798;10.968;2023-03-03T00:37:25;98330.03;;;7.44;55.31
49729;BME280;66333;49.798;10.968;2023-03-03T00:39:52;98331.81;;;7.44;55.18
49729;BME280;66333;49.798;10.968;2023-03-03T00:42:19;98331.09;;;7.42;55.14
49729;BME280;66333;49.798;10.968;2023-03-03T00:44:46;98328.50;;;7.42;55.00
49729;BME280;66333;49.798;10.968;2023-03-03T00:47:23;98335.34;;;7.43;55.15
49729;BME280;66333;49.798;10.968;2023-03-03T00:49:52;98343.31;;;7.41;54.99
49729;BME280;66333;49.798;10.968;2023-03-03T00:52:19;98341.78;;;7.39;55.15
49729;BME280;66333;49.798;10.968;2023-03-03T00:54:46;98334.78;;;7.39;54.97
49729;BME280;66333;49.798;10.968;2023-03-03T00:57:12;98335.88;;;7.37;55.16
49729;BME280;66333;49.798;10.968;2023-03-03T00:59:39;98337.53;;;7.38;55.04
49729;BME280;66333;49.798;10.968;2023-03-03T01:02:05;98329.59;;;7.39;55.12
49729;BME280;66333;49.798;10.968;2023-03-03T01:04:32;98331.50;;;7.37;55.30
49729;BME280;66333;49.798;10.968;2023-03-03T01:06:59;98330.69;;;7.37;55.22
49729;BME280;66333;49.798;10.968;2023-03-03T01:09:26;98334.09;;;7.37;54.96
49729;BME280;66333;49.798;10.968;2023-03-03T01:11:53;98330.69;;;7.37;55.01
49729;BME280;66333;49.798;10.968;2023-03-03T01:14:19;98336.13;;;7.33;55.16
49729;BME280;66333;49.798;10.968;2023-03-03T01:16:46;98330.22;;;7.31;55.38
49729;BME280;66333;49.798;10.968;2023-03-03T01:19:12;98319.66;;;7.33;55.25
49729;BME280;66333;49.798;10.968;2023-03-03T01:21:38;98319.81;;;7.31;55.19
49729;BME280;66333;49.798;10.968;2023-03-03T01:24:06;98326.78;;;7.31;55.28
49729;BME280;66333;49.798;10.968;2023-03-03T01:26:33;98327.75;;;7.30;55.28
49729;BME280;66333;49.798;10.968;2023-03-03T01:28:59;98324.31;;;7.29;55.15
49729;BME280;66333;49.798;10.968;2023-03-03T01:31:25;98329.53;;;7.29;55.25
49729;BME280;66333;49.798;10.968;2023-03-03T01:33:52;98322.69;;;7.28;55.32
49729;BME280;66333;49.798;10.968;2023-03-03T01:36:22;98324.31;;;7.29;55.02
49729;BME280;66333;49.798;10.968;2023-03-03T01:38:48;98317.47;;;7.28;55.07
49729;BME280;66333;49.798;10.968;2023-03-03T01:41:16;98316.78;;;7.26;54.96
49729;BME280;66333;49.798;10.968;2023-03-03T01:43:44;98321.03;;;7.27;55.09
49729;BME280;66333;49.798;10.968;2023-03-03T01:46:34;98321.28;;;7.24;55.16
49729;BME280;66333;49.798;10.968;2023-03-03T01:49:09;98314.19;;;7.26;55.15
49729;BME280;66333;49.798;10.968;2023-03-03T01:51:40;98310.84;;;7.24;55.00
49729;BME280;66333;49.798;10.968;2023-03-03T01:54:11;98307.28;;;7.25;55.26
49729;BME280;66333;49.798;10.968;2023-03-03T01:56:41;98310.16;;;7.22;55.21
49729;BME280;66333;49.798;10.968;2023-03-03T01:59:10;98307.69;;;7.21;55.19
49729;BME280;66333;49.798;10.968;2023-03-03T02:01:39;98313.59;;;7.23;55.29
49729;BME280;66333;49.798;10.968;2023-03-03T02:04:08;98309.47;;;7.20;55.34
49729;BME280;66333;49.798;10.968;2023-03-03T02:06:37;98313.88;;;7.20;55.55
49729;BME280;66333;49.798;10.968;2023-03-03T02:09:10;98311.13;;;7.21;55.13
49729;BME280;66333;49.798;10.968;2023-03-03T02:11:41;98308.66;;;7.20;55.12
49729;BME280;66333;49.798;10.968;2023-03-03T02:14:10;98318.25;;;7.19;55.32
49729;BME280;66333;49.798;10.968;2023-03-03T02:16:36;98318.34;;;7.18;55.36
49729;BME280;66333;49.798;10.968;2023-03-03T02:19:04;98314.94;;;7.17;55.22
49729;BME280;66333;49.798;10.968;2023-03-03T02:21:35;98315.88;;;7.16;55.16
49729;BME280;66333;49.798;10.968;2023-03-03T02:24:08;98316.84;;;7.15;55.24
49729;BME280;66333;49.798;10.968;2023-03-03T02:26:40;98309.84;;;7.16;55.38
49729;BME280;66333;49.798;10.968;2023-03-03T02:29:08;98309.03;;;7.15;55.09
49729;BME280;66333;49.798;10.968;2023-03-03T02:31:35;98315.19;;;7.14;55.18
49729;BME280;66333;49.798;10.968;2023-03-03T02:34:02;98317.09;;;7.12;55.30
49729;BME280;66333;49.798;10.968;2023-03-03T02:36:31;98315.31;;;7.13;55.39
49729;BME280;66333;49.798;10.968;2023-03-03T02:39:02;98316.00;;;7.15;55.01
49729;BME280;66333;49.798;10.968;2023-03-03T02:41:32;98312.84;;;7.11;55.37
49729;BME280;66333;49.798;10.968;2023-03-03T02:44:03;98308.34;;;7.13;55.24
49729;BME280;66333;49.798;10.968;2023-03-03T02:46:32;98303.41;;;7.10;55.28
49729;BME280;66333;49.798;10.968;2023-03-03T02:48:59;98306.94;;;7.09;55.33
49729;BME280;66333;49.798;10.968;2023-03-03T02:51:26;98305.28;;;7.08;55.47
49729;BME280;66333;49.798;10.968;2023-03-03T02:53:52;98309.66;;;7.07;55.41
49729;BME280;66333;49.798;10.968;2023-03-03T02:56:18;98315.59;;;7.10;55.27
49729;BME280;66333;49.798;10.968;2023-03-03T02:58:45;98325.16;;;7.09;55.08
49729;BME280;66333;49.798;10.968;2023-03-03T03:01:12;98326.13;;;7.08;55.15
49729;BME280;66333;49.798;10.968;2023-03-03T03:03:39;98319.25;;;7.07;55.23
49729;BME280;66333;49.798;10.968;2023-03-03T03:06:06;98319.25;;;7.07;55.13
49729;BME280;66333;49.798;10.968;2023-03-03T03:08:32;98321.19;;;7.05;55.48
49729;BME280;66333;49.798;10.968;2023-03-03T03:10:59;98327.47;;;7.02;55.44
49729;BME280;66333;49.798;10.968;2023-03-03T03:13:25;98320.34;;;7.04;55.20
49729;BME280;66333;49.798;10.968;2023-03-03T03:15:51;98317.88;;;7.03;55.31
49729;BME280;66333;49.798;10.968;2023-03-03T03:18:19;98326.66;;;7.02;55.23
49729;BME280;66333;49.798;10.968;2023-03-03T03:20:46;98335.16;;;7.04;55.29
49729;BME280;66333;49.798;10.968;2023-03-03T03:23:12;98336.25;;;7.01;55.40
49729;BME280;66333;49.798;10.968;2023-03-03T03:25:39;98338.03;;;7.01;55.21
49729;BME280;66333;49.798;10.968;2023-03-03T03:28:09;98337.31;;;6.99;55.18
49729;BME280;66333;49.798;10.968;2023-03-03T03:30:36;98330.47;;;6.98;55.16
49729;BME280;66333;49.798;10.968;2023-03-03T03:33:02;98332.94;;;6.99;55.10
49729;BME280;66333;49.798;10.968;2023-03-03T03:35:31;98329.50;;;6.99;55.22
49729;BME280;66333;49.798;10.968;2023-03-03T03:37:58;98331.41;;;6.97;55.34
49729;BME280;66333;49.798;10.968;2023-03-03T03:40:25;98320.03;;;6.98;55.17
49729;BME280;66333;49.798;10.968;2023-03-03T03:42:52;98307.16;;;6.96;55.32
49729;BME280;66333;49.798;10.968;2023-03-03T03:45:18;98311.53;;;6.96;55.42
49729;BME280;66333;49.798;10.968;2023-03-03T03:47:45;98318.66;;;6.94;55.28
49729;BME280;66333;49.798;10.968;2023-03-03T03:50:12;98321.94;;;6.96;55.34
49729;BME280;66333;49.798;10.968;2023-03-03T03:52:40;98325.50;;;6.95;55.43
49729;BME280;66333;49.798;10.968;2023-03-03T03:55:08;98335.94;;;6.95;55.17
49729;BME280;66333;49.798;10.968;2023-03-03T03:57:34;98332.63;;;6.93;55.30
49729;BME280;66333;49.798;10.968;2023-03-03T04:00:01;98335.09;;;6.94;55.11
49729;BME280;66333;49.798;10.968;2023-03-03T04:02:27;98330.97;;;6.92;55.29
49729;BME280;66333;49.798;10.968;2023-03-03T04:04:54;98332.88;;;6.90;55.30
49729;BME280;66333;49.798;10.968;2023-03-03T04:07:20;98334.53;;;6.91;55.40
49729;BME280;66333;49.798;10.968;2023-03-03T04:09:48;98335.59;;;6.88;55.57
49729;BME280;66333;49.798;10.968;2023-03-03T04:12:15;98333.81;;;6.89;55.02
49729;BME280;66333;49.798;10.968;2023-03-03T04:14:41;98334.78;;;6.88;55.59
49729;BME280;66333;49.798;10.968;2023-03-03T04:17:09;98337.38;;;6.88;55.56
49729;BME280;66333;49.798;10.968;2023-03-03T04:19:40;98346.16;;;6.87;55.36
49729;BME280;66333;49.798;10.968;2023-03-03T04:22:07;98338.34;;;6.87;55.36
49729;BME280;66333;49.798;10.968;2023-03-03T04:24:33;98332.31;;;6.86;55.28
49729;BME280;66333;49.798;10.968;2023-03-03T04:27:01;98327.09;;;6.86;55.36
49729;BME280;66333;49.798;10.968;2023-03-03T04:29:27;98333.41;;;6.84;55.33
49729;BME280;66333;49.798;10.968;2023-03-03T04:31:54;98330.81;;;6.84;55.46
49729;BME280;66333;49.798;10.968;2023-03-03T04:34:20;98336.94;;;6.83;55.30
49729;BME280;66333;49.798;10.968;2023-03-03T04:36:46;98331.72;;;6.83;55.58
49729;BME280;66333;49.798;10.968;2023-03-03T04:39:13;98344.06;;;6.81;55.51
49729;BME280;66333;49.798;10.968;2023-03-03T04:41:39;98346.78;;;6.79;55.39
49729;BME280;66333;49.798;10.968;2023-03-03T04:44:08;98354.47;;;6.81;55.27
49729;BME280;66333;49.798;10.968;2023-03-03T04:46:34;98343.22;;;6.80;55.36
49729;BME280;66333;49.798;10.968;2023-03-03T04:49:00;98347.34;;;6.83;55.45
49729;BME280;66333;49.798;10.968;2023-03-03T04:51:27;98345.69;;;6.82;55.49
49729;BME280;66333;49.798;10.968;2023-03-03T04:53:54;98352.81;;;6.79;55.31
49729;BME280;66333;49.798;10.968;2023-03-03T04:56:20;98346.91;;;6.77;55.35
49729;BME280;66333;49.798;10.968;2023-03-03T04:58:46;98348.56;;;6.78;55.52
49729;BME280;66333;49.798;10.968;2023-03-03T05:01:14;98351.19;;;6.78;55.37
49729;BME280;66333;49.798;10.968;2023-03-03T05:03:41;98349.53;;;6.77;55.68
49729;BME280;66333;49.798;10.968;2023-03-03T05:06:07;98346.78;;;6.79;55.55
49729;BME280;66333;49.798;10.968;2023-03-03T05:08:33;98344.06;;;6.81;55.56
49729;BME280;66333;49.798;10.968;2023-03-03T05:11:00;98347.75;;;6.78;55.55
49729;BME280;66333;49.798;10.968;2023-03-03T05:13:26;98353.78;;;6.78;55.36
49729;BME280;66333;49.798;10.968;2023-03-03T05:15:54;98357.47;;;6.76;55.33
49729;BME280;66333;49.798;10.968;2023-03-03T05:18:23;98359.25;;;6.75;55.55
49729;BME280;66333;49.798;10.968;2023-03-03T05:20:50;98358.53;;;6.73;55.60
49729;BME280;66333;49.798;10.968;2023-03-03T05:23:17;98364.47;;;6.75;55.45
49729;BME280;66333;49.798;10.968;2023-03-03T05:25:44;98363.59;;;6.75;55.31
49729;BME280;66333;49.798;10.968;2023-03-03T05:28:11;98374.97;;;6.74;55.28
49729;BME280;66333;49.798;10.968;2023-03-03T05:30:38;98377.72;;;6.72;55.45
49729;BME280;66333;49.798;10.968;2023-03-03T05:33:05;98372.50;;;6.72;55.45
49729;BME280;66333;49.798;10.968;2023-03-03T05:35:33;98366.06;;;6.56;53.59
49729;BME280;66333;49.798;10.968;2023-03-03T05:37:59;98359.81;;;6.58;53.75
49729;BME280;66333;49.798;10.968;2023-03-03T05:40:27;98365.56;;;6.62;54.03
49729;BME280;66333;49.798;10.968;2023-03-03T05:42:53;98365.69;;;6.60;54.22
49729;BME280;66333;49.798;10.968;2023-03-03T05:45:19;98373.50;;;6.60;54.20
49729;BME280;66333;49.798;10.968;2023-03-03T05:47:49;98375.16;;;6.61;54.62
49729;BME280;66333;49.798;10.968;2023-03-03T05:50:16;98372.81;;;6.58;54.52
49729;BME280;66333;49.798;10.968;2023-03-03T05:52:46;98374.47;;;6.59;54.79
49729;BME280;66333;49.798;10.968;2023-03-03T05:55:13;98367.63;;;6.58;54.42
49729;BME280;66333;49.798;10.968;2023-03-03T05:57:39;98372.91;;;6.57;54.98
49729;BME280;66333;49.798;10.968;2023-03-03T06:00:06;98375.41;;;6.58;54.77
49729;BME280;66333;49.798;10.968;2023-03-03T06:02:33;98369.50;;;6.56;54.81
49729;BME280;66333;49.798;10.968;2023-03-03T06:05:00;98381.69;;;6.56;55.13
49729;BME280;66333;49.798;10.968;2023-03-03T06:07:26;98387.00;;;6.54;55.15
49729;BME280;66333;49.798;10.968;2023-03-03T06:09:54;98388.66;;;6.55;55.14
49729;BME280;66333;49.798;10.968;2023-03-03T06:12:20;98392.09;;;6.56;54.88
49729;BME280;66333;49.798;10.968;2023-03-03T06:14:47;98396.25;;;6.58;54.96
49729;BME280;66333;49.798;10.968;2023-03-03T06:17:13;98401.44;;;6.58;55.10
49729;BME280;66333;49.798;10.968;2023-03-03T06:19:40;98400.03;;;6.54;54.99
49729;BME280;66333;49.798;10.968;2023-03-03T06:22:07;98404.53;;;6.52;55.29
49729;BME280;66333;49.798;10.968;2023-03-03T06:24:34;98407.84;;;6.54;55.34
49729;BME280;66333;49.798;10.968;2023-03-03T06:27:02;98406.19;;;6.53;55.34
49729;BME280;66333;49.798;10.968;2023-03-03T06:29:28;98407.16;;;6.52;55.61
49729;BME280;66333;49.798;10.968;2023-03-03T06:31:54;98407.38;;;6.49;55.52
49729;BME280;66333;49.798;10.968;2023-03-03T06:34:21;98412.34;;;6.52;55.24
49729;BME280;66333;49.798;10.968;2023-03-03T06:36:47;98415.09;;;6.50;55.43
49729;BME280;66333;49.798;10.968;2023-03-03T06:39:14;98416.97;;;6.48;55.22
49729;BME280;66333;49.798;10.968;2023-03-03T06:41:40;98419.47;;;6.50;55.29
49729;BME280;66333;49.798;10.968;2023-03-03T06:44:08;98413.66;;;6.46;55.56
49729;BME280;66333;49.798;10.968;2023-03-03T06:46:36;98412.72;;;6.47;55.62
49729;BME280;66333;49.798;10.968;2023-03-03T06:49:02;98426.53;;;6.48;55.39
49729;BME280;66333;49.798;10.968;2023-03-03T06:51:30;98431.06;;;6.46;55.66
49729;BME280;66333;49.798;10.968;2023-03-03T06:54:01;98430.34;;;6.44;55.52
49729;BME280;66333;49.798;10.968;2023-03-03T06:56:27;98435.31;;;6.47;55.39
49729;BME280;66333;49.798;10.968;2023-03-03T06:58:57;98438.03;;;6.45;55.40
49729;BME280;66333;49.798;10.968;2023-03-03T07:01:26;98442.41;;;6.45;55.72
49729;BME280;66333;49.798;10.968;2023-03-03T07:03:54;98447.63;;;6.45;55.64
49729;BME280;66333;49.798;10.968;2023-03-03T07:06:22;98452.81;;;6.45;55.73
49729;BME280;66333;49.798;10.968;2023-03-03T07:08:49;98461.59;;;6.44;55.76
49729;BME280;66333;49.798;10.968;2023-03-03T07:11:18;98466.78;;;6.44;55.56
49729;BME280;66333;49.798;10.968;2023-03-03T07:13:46;98463.38;;;6.43;55.41
49729;BME280;66333;49.798;10.968;2023-03-03T07:16:15;98470.56;;;6.40;55.65
49729;BME280;66333;49.798;10.968;2023-03-03T07:18:47;98472.22;;;6.41;55.92
49729;BME280;66333;49.798;10.968;2023-03-03T07:21:17;98475.78;;;6.40;55.77
49729;BME280;66333;49.798;10.968;2023-03-03T07:23:45;98467.00;;;6.41;55.78
49729;BME280;66333;49.798;10.968;2023-03-03T07:26:13;98474.13;;;6.39;56.00
49729;BME280;66333;49.798;10.968;2023-03-03T07:28:41;98475.91;;;6.38;55.95
49729;BME280;66333;49.798;10.968;2023-03-03T07:31:30;98477.69;;;6.38;56.00
49729;BME280;66333;49.798;10.968;2023-03-03T07:34:00;98498.25;;;6.41;55.75
49729;BME280;66333;49.798;10.968;2023-03-03T07:36:29;98500.97;;;6.39;55.93
49729;BME280;66333;49.798;10.968;2023-03-03T07:38:58;98505.59;;;6.36;55.99
49729;BME280;66333;49.798;10.968;2023-03-03T07:41:25;98508.09;;;6.37;55.95
49729;BME280;66333;49.798;10.968;2023-03-03T07:43:53;98510.81;;;6.36;55.90
49729;BME280;66333;49.798;10.968;2023-03-03T07:46:24;98507.25;;;6.37;55.81
49729;BME280;66333;49.798;10.968;2023-03-03T07:48:53;98514.38;;;6.35;56.04
49729;BME280;66333;49.798;10.968;2023-03-03T07:51:25;98514.50;;;6.33;56.15
49729;BME280;66333;49.798;10.968;2023-03-03T07:53:53;98518.75;;;6.34;55.90
49729;BME280;66333;49.798;10.968;2023-03-03T07:56:26;98514.38;;;6.35;56.02
49729;BME280;66333;49.798;10.968;2023-03-03T07:58:54;98523.13;;;6.34;56.09
49729;BME280;66333;49.798;10.968;2023-03-03T08:01:39;98523.13;;;6.34;55.90
49729;BME280;66333;49.798;10.968;2023-03-03T08:04:18;98528.41;;;6.32;55.87
49729;BME280;66333;49.798;10.968;2023-03-03T08:06:51;98524.06;;;6.33;56.10
49729;BME280;66333;49.798;10.968;2023-03-03T08:09:40;98524.16;;;6.31;56.04
49729;BME280;66333;49.798;10.968;2023-03-03T08:12:33;98524.06;;;6.33;56.14
49729;BME280;66333;49.798;10.968;2023-03-03T08:15:23;98516.00;;;6.36;55.87
49729;BME280;66333;49.798;10.968;2023-03-03T08:17:53;98512.72;;;6.34;55.87
49729;BME280;66333;49.798;10.968;2023-03-03T08:20:43;98511.06;;;6.33;56.15
49729;BME280;66333;49.798;10.968;2023-03-03T08:23:14;98511.06;;;6.33;56.25
49729;BME280;66333;49.798;10.968;2023-03-03T08:25:43;98504.16;;;6.32;56.17
49729;BME280;66333;49.798;10.968;2023-03-03T08:28:10;98506.69;;;6.33;56.18
49729;BME280;66333;49.798;10.968;2023-03-03T08:30:38;98507.50;;;6.34;55.97
49729;BME280;66333;49.798;10.968;2023-03-03T08:33:04;98513.66;;;6.33;56.18
49729;BME280;66333;49.798;10.968;2023-03-03T08:35:31;98516.84;;;6.36;56.00
49729;BME280;66333;49.798;10.968;2023-03-03T08:37:57;98523.94;;;6.34;56.07
49729;BME280;66333;49.798;10.968;2023-03-03T08:40:25;98517.66;;;6.37;56.04
49729;BME280;66333;49.798;10.968;2023-03-03T08:42:51;98513.41;;;6.36;55.98
49729;BME280;66333;49.798;10.968;2023-03-03T08:45:18;98521.22;;;6.36;55.92
49729;BME280;66333;49.798;10.968;2023-03-03T08:47:45;98515.06;;;6.37;55.75
49729;BME280;66333;49.798;10.968;2023-03-03T08:50:12;98504.66;;;6.37;55.96
49729;BME280;66333;49.798;10.968;2023-03-03T08:52:39;98507.25;;;6.37;55.94
49729;BME280;66333;49.798;10.968;2023-03-03T08:55:06;98508.91;;;6.38;56.15
49729;BME280;66333;49.798;10.968;2023-03-03T08:57:34;98516.00;;;6.36;55.89
49729;BME280;66333;49.798;10.968;2023-03-03T09:00:00;98514.00;;;6.39;55.74
49729;BME280;66333;49.798;10.968;2023-03-03T09:02:27;98510.56;;;6.39;56.04
49729;BME280;66333;49.798;10.968;2023-03-03T09:04:53;98520.97;;;6.39;55.93
49729;BME280;66333;49.798;10.968;2023-03-03T09:07:19;98520.75;;;6.42;55.76
49729;BME280;66333;49.798;10.968;2023-03-03T09:09:46;98521.44;;;6.44;55.94
49729;BME280;66333;49.798;10.968;2023-03-03T09:12:15;98517.19;;;6.43;55.92
49729;BME280;66333;49.798;10.968;2023-03-03T09:14:44;98522.41;;;6.43;55.80
49729;BME280;66333;49.798;10.968;2023-03-03T09:17:25;98509.38;;;6.43;55.69
49729;BME280;66333;49.798;10.968;2023-03-03T09:19:54;98518.84;;;6.44;55.99
49729;BME280;66333;49.798;10.968;2023-03-03T09:22:24;98519.66;;;6.44;55.75
49729;BME280;66333;49.798;10.968;2023-03-03T09:24:54;98519.53;;;6.46;55.69
49729;BME280;66333;49.798;10.968;2023-03-03T09:27:27;98529.00;;;6.47;55.94
49729;BME280;66333;49.798;10.968;2023-03-03T09:29:56;98528.19;;;6.46;55.94
49729;BME280;66333;49.798;10.968;2023-03-03T09:32:31;98526.19;;;6.50;55.91
49729;BME280;66333;49.798;10.968;2023-03-03T09:34:59;98525.22;;;6.51;55.69
49729;BME280;66333;49.798;10.968;2023-03-03T09:37:27;98525.22;;;6.51;55.58
49729;BME280;66333;49.798;10.968;2023-03-03T09:39:57;98521.91;;;6.49;55.77
49729;BME280;66333;49.798;10.968;2023-03-03T09:42:36;98521.81;;;6.50;55.63
49729;BME280;66333;49.798;10.968;2023-03-03T09:45:19;98525.22;;;6.51;55.58
49729;BME280;66333;49.798;10.968;2023-03-03T09:48:02;98528.53;;;6.53;55.60
49729;BME280;66333;49.798;10.968;2023-03-03T09:50:38;98528.53;;;6.53;55.85
49729;BME280;66333;49.798;10.968;2023-03-03T09:53:18;98531.84;;;6.55;55.55
49729;BME280;66333;49.798;10.968;2023-03-03T09:55:53;98530.66;;;6.59;55.72
49729;BME280;66333;49.798;10.968;2023-03-03T09:58:35;98540.34;;;6.57;55.79
49729;BME280;66333;49.798;10.968;2023-03-03T10:01:32;98538.56;;;6.58;55.68
49729;BME280;66333;49.798;10.968;2023-03-03T10:07:18;98537.53;;;6.60;55.68
49729;BME280;66333;49.798;10.968;2023-03-03T10:09:57;98541.78;;;6.61;55.60
49729;BME280;66333;49.798;10.968;2023-03-03T10:12:32;98548.63;;;6.62;55.74
49729;BME280;66333;49.798;10.968;2023-03-03T10:15:26;98540.56;;;6.65;55.50
49729;BME280;66333;49.798;10.968;2023-03-03T10:18:00;98541.53;;;6.64;55.74
49729;BME280;66333;49.798;10.968;2023-03-03T10:20:44;98547.56;;;6.65;55.79
49729;BME280;66333;49.798;10.968;2023-03-03T10:23:18;98549.00;;;6.69;55.75
49729;BME280;66333;49.798;10.968;2023-03-03T10:25:52;98556.69;;;6.70;55.51
49729;BME280;66333;49.798;10.968;2023-03-03T10:28:44;98553.13;;;6.71;55.49
49729;BME280;66333;49.798;10.968;2023-03-03T10:31:22;98547.91;;;6.71;55.76
49729;BME280;66333;49.798;10.968;2023-03-03T10:33:57;98553.13;;;6.71;55.60
49729;BME280;66333;49.798;10.968;2023-03-03T10:36:35;98552.88;;;6.74;55.54
49729;BME280;66333;49.798;10.968;2023-03-03T10:39:19;98547.66;;;6.74;55.77
49729;BME280;66333;49.798;10.968;2023-03-03T10:41:58;98539.75;;;6.76;55.59
49729;BME280;66333;49.798;10.968;2023-03-03T10:44:45;98557.84;;;6.77;55.34
49729;BME280;66333;49.798;10.968;2023-03-03T10:47:35;98552.41;;;6.81;55.54
49729;BME280;66333;49.798;10.968;2023-03-03T10:50:13;98547.19;;;6.81;55.58
49729;BME280;66333;49.798;10.968;2023-03-03T10:52:48;98540.06;;;6.83;55.46
49729;BME280;66333;49.798;10.968;2023-03-03T10:55:23;98547.88;;;6.83;55.62
49729;BME280;66333;49.798;10.968;2023-03-03T10:58:03;98544.34;;;6.84;55.56
49729;BME280;66333;49.798;10.968;2023-03-03T11:00:40;98536.28;;;6.87;55.63
49729;BME280;66333;49.798;10.968;2023-03-03T11:03:40;98538.91;;;6.87;55.69
49729;BME280;66333;49.798;10.968;2023-03-03T11:06:15;98543.97;;;6.88;55.66
49729;BME280;66333;49.798;10.968;2023-03-03T11:08:48;98537.94;;;6.88;55.68
49729;BME280;66333;49.798;10.968;2023-03-03T11:11:26;98535.81;;;6.93;55.80
49729;BME280;66333;49.798;10.968;2023-03-03T11:14:02;98528.69;;;6.95;55.70
49729;BME280;66333;49.798;10.968;2023-03-03T11:16:43;98527.03;;;6.94;55.62
49729;BME280;66333;49.798;10.968;2023-03-03T11:19:29;98521.81;;;6.94;55.76
49729;BME280;66333;49.798;10.968;2023-03-03T11:22:12;98528.44;;;6.98;55.66
49729;BME280;66333;49.798;10.968;2023-03-03T11:24:53;98524.88;;;6.99;55.63
49729;BME280;66333;49.798;10.968;2023-03-03T11:27:37;98525.59;;;7.01;55.64
49729;BME280;66333;49.798;10.968;2023-03-03T11:30:17;98519.44;;;7.02;55.62
49729;BME280;66333;49.798;10.968;2023-03-03T11:32:53;98519.19;;;7.05;55.43
49729;BME280;66333;49.798;10.968;2023-03-03T11:35:28;98519.19;;;7.05;55.66
49729;BME280;66333;49.798;10.968;2023-03-03T11:38:05;98508.75;;;7.05;55.80
49729;BME280;66333;49.798;10.968;2023-03-03T11:40:41;98507.53;;;7.09;55.60
49729;BME280;66333;49.798;10.968;2023-03-03T11:43:17;98501.41;;;7.10;55.57
49729;BME280;66333;49.798;10.968;2023-03-03T11:45:47;98502.81;;;7.14;55.51
49729;BME280;66333;49.798;10.968;2023-03-03T11:48:17;98495.81;;;7.15;55.71
49729;BME280;66333;49.798;10.968;2023-03-03T11:50:52;98506.94;;;7.17;55.66
49729;BME280;66333;49.798;10.968;2023-03-03T11:53:37;98492.94;;;7.18;55.73
49729;BME280;66333;49.798;10.968;2023-03-03T11:56:16;98487.63;;;7.19;55.55
49729;BME280;66333;49.798;10.968;2023-03-03T11:58:48;98483.13;;;7.21;55.55
49729;BME280;66333;49.798;10.968;2023-03-03T12:01:20;98479.56;;;7.22;55.62
49729;BME280;66333;49.798;10.968;2023-03-03T12:03:49;98474.06;;;7.25;55.48
49729;BME280;66333;49.798;10.968;2023-03-03T12:06:24;98465.34;;;7.26;55.59
49729;BME280;66333;49.798;10.968;2023-03-03T12:09:13;98463.41;;;7.28;55.63
49729;BME280;66333;49.798;10.968;2023-03-03T12:11:47;98466.44;;;7.33;55.51
49729;BME280;66333;49.798;10.968;2023-03-03T12:14:29;98461.00;;;7.37;55.19
49729;BME280;66333;49.798;10.968;2023-03-03T12:17:02;98460.19;;;7.36;55.42
49729;BME280;66333;49.798;10.968;2023-03-03T12:19:34;98455.78;;;7.37;55.36
49729;BME280;66333;49.798;10.968;2023-03-03T12:22:14;98457.44;;;7.38;55.44
49729;BME280;66333;49.798;10.968;2023-03-03T12:25:03;98458.13;;;7.40;55.48
49729;BME280;66333;49.798;10.968;2023-03-03T12:27:38;98459.91;;;7.39;55.47
49729;BME280;66333;49.798;10.968;2023-03-03T12:30:18;98458.13;;;7.40;55.56
49729;BME280;66333;49.798;10.968;2023-03-03T12:33:00;98464.03;;;7.42;55.39
49729;BME280;66333;49.798;10.968;2023-03-03T12:35:35;98457.75;;;7.44;55.55
49729;BME280;66333;49.798;10.968;2023-03-03T12:38:10;98461.06;;;7.46;55.51
49729;BME280;66333;49.798;10.968;2023-03-03T12:40:45;98456.69;;;7.47;55.36
49729;BME280;66333;49.798;10.968;2023-03-03T12:43:27;98462.72;;;7.47;55.71
49729;BME280;66333;49.798;10.968;2023-03-03T12:46:05;98458.19;;;7.49;55.42
49729;BME280;66333;49.798;10.968;2023-03-03T12:48:39;98454.75;;;7.49;55.38
49729;BME280;66333;49.798;10.968;2023-03-03T12:51:15;98443.38;;;7.50;55.51
49729;BME280;66333;49.798;10.968;2023-03-03T12:54:01;98437.91;;;7.53;55.42
49729;BME280;66333;49.798;10.968;2023-03-03T12:56:37;98438.75;;;7.53;55.77
49729;BME280;66333;49.798;10.968;2023-03-03T12:59:10;98433.41;;;7.55;55.43
49729;BME280;66333;49.798;10.968;2023-03-03T13:01:51;98437.38;;;7.59;55.54
49729;BME280;66333;49.798;10.968;2023-03-03T13:04:32;98431.47;;;7.57;55.61
49729;BME280;66333;49.798;10.968;2023-03-03T13:07:05;98432.03;;;7.60;55.47
49729;BME280;66333;49.798;10.968;2023-03-03T13:09:54;98434.53;;;7.62;55.52
49729;BME280;66333;49.798;10.968;2023-03-03T13:12:31;98436.06;;;7.64;55.38
49729;BME280;66333;49.798;10.968;2023-03-03T13:15:04;98435.34;;;7.62;55.55
49729;BME280;66333;49.798;10.968;2023-03-03T13:17:39;98429.06;;;7.65;55.61
49729;BME280;66333;49.798;10.968;2023-03-03T13:20:19;98433.16;;;7.68;55.56
49729;BME280;66333;49.798;10.968;2023-03-03T13:22:51;98421.91;;;7.67;55.54
49729;BME280;66333;49.798;10.968;2023-03-03T13:25:33;98430.47;;;7.69;55.63